createdAt,value
2019-02-25T00:00:40.847Z,18.02
2019-02-25T00:03:09.449Z,18.35
2019-02-25T00:05:37.949Z,17.95
2019-02-25T00:08:06.453Z,17.60
2019-02-25T00:10:35.095Z,17.48
2019-02-25T00:13:03.569Z,19.70
2019-02-25T00:15:32.073Z,18.73
2019-02-25T00:18:00.551Z,18.37
2019-02-25T00:20:29.046Z,21.35
2019-02-25T00:22:57.524Z,20.40
2019-02-25T00:25:26.022Z,18.67
2019-02-25T00:27:54.496Z,18.75
2019-02-25T00:30:23.642Z,19.15
2019-02-25T00:32:52.128Z,20.32
2019-02-25T00:35:20.636Z,19.07
2019-02-25T00:37:49.128Z,21.80
2019-02-25T00:40:20.878Z,20.60
2019-02-25T00:42:49.401Z,19.82
2019-02-25T00:45:17.889Z,20.32
2019-02-25T00:47:46.379Z,21.68
2019-02-25T00:50:17.261Z,23.60
2019-02-25T00:52:45.759Z,24.82
2019-02-25T00:55:14.365Z,25.80
2019-02-25T00:57:42.844Z,25.17
2019-02-25T01:00:21.591Z,22.05
2019-02-25T01:02:50.072Z,20.45
2019-02-25T01:05:18.633Z,20.30
2019-02-25T01:07:47.128Z,19.85
2019-02-25T01:10:16.172Z,19.27
2019-02-25T01:12:45.461Z,19.95
2019-02-25T01:15:14.085Z,17.92
2019-02-25T01:17:42.560Z,19.98
2019-02-25T01:20:15.155Z,19.90
2019-02-25T01:22:43.646Z,20.60
2019-02-25T01:25:13.523Z,20.00
2019-02-25T01:27:42.005Z,19.62
2019-02-25T01:30:16.029Z,19.60
2019-02-25T01:35:12.990Z,19.80
2019-02-25T01:37:41.529Z,19.60
2019-02-25T01:40:17.722Z,19.42
2019-02-25T01:42:46.247Z,21.12
2019-02-25T01:45:21.071Z,19.17
2019-02-25T01:47:49.549Z,19.73
2019-02-25T01:50:18.023Z,20.32
2019-02-25T01:52:46.514Z,21.75
2019-02-25T01:55:15.018Z,20.62
2019-02-25T01:57:43.824Z,20.02
2019-02-25T02:00:16.423Z,20.60
2019-02-25T02:02:44.906Z,19.35
2019-02-25T02:05:13.390Z,19.52
2019-02-25T02:07:41.871Z,21.20
2019-02-25T02:10:15.030Z,21.02
2019-02-25T02:12:43.593Z,20.35
2019-02-25T02:15:14.792Z,19.35
2019-02-25T02:17:43.274Z,21.00
2019-02-25T02:20:13.796Z,20.50
2019-02-25T02:22:42.289Z,20.35
2019-02-25T02:25:11.528Z,19.82
2019-02-25T02:27:40.011Z,18.42
2019-02-25T02:30:17.732Z,19.67
2019-02-25T02:32:46.288Z,21.40
2019-02-25T02:35:14.824Z,20.40
2019-02-25T02:37:43.308Z,20.62
2019-02-25T02:40:13.144Z,20.00
2019-02-25T02:42:44.924Z,20.92
2019-02-25T02:45:19.627Z,19.48
2019-02-25T02:47:51.368Z,21.85
2019-02-25T02:50:21.984Z,19.50
2019-02-25T02:52:50.471Z,22.27
2019-02-25T02:55:18.955Z,23.07
2019-02-25T02:57:47.477Z,20.85
2019-02-25T03:00:17.585Z,19.67
2019-02-25T03:02:46.085Z,20.20
2019-02-25T03:05:15.818Z,21.37
2019-02-25T03:07:44.312Z,19.95
2019-02-25T03:10:15.509Z,18.90
2019-02-25T03:12:44.002Z,19.17
2019-02-25T03:15:17.498Z,19.37
2019-02-25T03:17:45.990Z,19.65
2019-02-25T03:20:14.483Z,19.85
2019-02-25T03:22:42.961Z,19.30
2019-02-25T03:25:13.584Z,18.82
2019-02-25T03:27:42.077Z,19.70
2019-02-25T03:30:16.746Z,19.07
2019-02-25T03:32:45.292Z,20.05
2019-02-25T03:35:13.775Z,18.92
2019-02-25T03:37:42.494Z,19.55
2019-02-25T03:40:13.323Z,18.73
2019-02-25T03:42:41.819Z,19.67
2019-02-25T03:45:12.589Z,19.40
2019-02-25T03:47:41.124Z,18.37
2019-02-25T03:50:09.738Z,19.15
2019-02-25T03:52:38.204Z,19.45
2019-02-25T03:55:15.101Z,20.68
2019-02-25T03:57:46.414Z,20.95
2019-02-25T04:00:17.588Z,18.55
2019-02-25T04:02:46.067Z,18.35
2019-02-25T04:05:14.552Z,19.48
2019-02-25T04:07:43.115Z,18.17
2019-02-25T04:10:13.137Z,19.73
2019-02-25T04:12:41.714Z,19.90
2019-02-25T04:15:12.492Z,20.25
2019-02-25T04:17:40.988Z,18.30
2019-02-25T04:20:12.071Z,19.62
2019-02-25T04:22:40.568Z,20.20
2019-02-25T04:25:09.054Z,19.55
2019-02-25T04:27:37.555Z,18.02
2019-02-25T04:30:09.275Z,18.48
2019-02-25T04:32:37.772Z,19.45
2019-02-25T04:35:08.281Z,19.50
2019-02-25T04:37:36.760Z,17.23
2019-02-25T04:40:07.794Z,16.97
2019-02-25T04:42:36.271Z,19.70
2019-02-25T04:45:07.740Z,18.55
2019-02-25T04:47:36.262Z,17.48
2019-02-25T04:50:06.090Z,17.23
2019-02-25T04:52:34.558Z,17.30
2019-02-25T04:55:03.071Z,15.90
2019-02-25T04:57:31.545Z,16.00
2019-02-25T05:00:00.030Z,17.50
2019-02-25T05:02:28.538Z,17.05
2019-02-25T05:04:57.062Z,16.80
2019-02-25T05:07:25.623Z,16.85
2019-02-25T05:09:54.173Z,15.93
2019-02-25T05:12:22.662Z,16.32
2019-02-25T05:14:51.149Z,16.82
2019-02-25T05:17:19.636Z,17.52
2019-02-25T05:19:48.127Z,16.55
2019-02-25T05:22:16.630Z,16.70
2019-02-25T05:24:45.109Z,16.37
2019-02-25T05:27:13.650Z,17.48
2019-02-25T05:29:42.145Z,17.62
2019-02-25T05:32:10.615Z,16.77
2019-02-25T05:34:39.112Z,15.58
2019-02-25T05:37:07.597Z,17.10
2019-02-25T05:39:36.109Z,16.73
2019-02-25T05:42:04.529Z,16.42
2019-02-25T05:44:33.028Z,16.50
2019-02-25T05:47:01.500Z,18.35
2019-02-25T05:49:30.074Z,17.35
2019-02-25T05:51:58.573Z,16.35
2019-02-25T05:54:27.111Z,16.62
2019-02-25T05:56:55.580Z,17.95
2019-02-25T05:59:25.106Z,15.43
2019-02-25T06:01:53.571Z,16.23
2019-02-25T06:04:22.038Z,16.87
2019-02-25T06:06:50.557Z,18.57
2019-02-25T06:09:19.028Z,19.52
2019-02-25T06:11:47.573Z,17.90
2019-02-25T06:14:16.027Z,19.62
2019-02-25T06:16:44.565Z,17.40
2019-02-25T06:19:13.040Z,18.70
2019-02-25T06:21:41.526Z,17.82
2019-02-25T06:24:10.029Z,19.17
2019-02-25T06:26:38.769Z,19.62
2019-02-25T06:29:07.325Z,17.67
2019-02-25T06:31:35.800Z,19.17
2019-02-25T06:34:04.331Z,19.05
2019-02-25T06:36:32.812Z,18.40
2019-02-25T06:39:01.284Z,19.55
2019-02-25T06:41:29.780Z,17.62
2019-02-25T06:43:58.261Z,19.40
2019-02-25T06:46:26.753Z,16.75
2019-02-25T06:48:55.236Z,19.07
2019-02-25T06:51:23.761Z,20.57
2019-02-25T06:53:52.311Z,18.60
2019-02-25T06:56:20.794Z,16.07
2019-02-25T06:58:49.327Z,14.47
2019-02-25T07:01:17.835Z,14.93
2019-02-25T07:03:47.943Z,15.23
2019-02-25T07:06:18.166Z,15.83
2019-02-25T07:08:50.936Z,16.12
2019-02-25T07:11:26.776Z,14.03
2019-02-25T07:14:02.788Z,14.25
2019-02-25T07:16:35.730Z,14.83
2019-02-25T07:19:14.666Z,14.03
2019-02-25T07:21:44.793Z,13.88
2019-02-25T07:24:23.852Z,13.98
2019-02-25T07:27:12.095Z,14.05
2019-02-25T07:29:45.440Z,14.87
2019-02-25T07:32:21.245Z,14.98
2019-02-25T07:35:03.170Z,15.45
2019-02-25T07:37:48.075Z,16.52
2019-02-25T07:40:26.928Z,17.40
2019-02-25T07:43:08.845Z,19.25
2019-02-25T07:45:39.007Z,19.23
2019-02-25T07:48:14.783Z,19.90
2019-02-25T07:50:59.784Z,19.00
2019-02-25T07:53:32.739Z,20.55
2019-02-25T07:56:17.722Z,20.00
2019-02-25T07:59:07.521Z,20.60
2019-02-25T08:01:43.319Z,20.65
2019-02-25T08:04:25.138Z,21.35
2019-02-25T08:07:01.144Z,23.67
2019-02-25T08:09:37.020Z,23.05
2019-02-25T08:12:09.764Z,24.90
2019-02-25T08:14:39.901Z,25.57
2019-02-25T08:17:26.134Z,23.98
2019-02-25T08:20:01.892Z,24.30
2019-02-25T08:22:32.058Z,25.05
2019-02-25T08:25:07.922Z,26.23
2019-02-25T08:27:43.865Z,26.35
2019-02-25T08:30:29.107Z,23.25
2019-02-25T08:33:11.036Z,24.70
2019-02-25T08:35:50.137Z,24.47
2019-02-25T08:38:25.816Z,22.90
2019-02-25T08:41:06.117Z,23.87
2019-02-25T08:43:45.183Z,23.00
2019-02-25T08:46:21.121Z,23.22
2019-02-25T08:49:09.179Z,23.10
2019-02-25T08:51:37.667Z,23.47
2019-02-25T08:54:06.167Z,23.07
2019-02-25T08:56:34.649Z,24.43
2019-02-25T08:59:03.160Z,21.90
2019-02-25T09:01:31.949Z,22.85
2019-02-25T09:04:00.420Z,23.10
2019-02-25T09:06:28.912Z,21.02
2019-02-25T09:08:57.371Z,21.27
2019-02-25T09:11:25.877Z,20.43
2019-02-25T09:13:54.346Z,19.57
2019-02-25T09:16:22.918Z,19.90
2019-02-25T09:18:51.383Z,20.68
2019-02-25T09:21:19.851Z,20.32
2019-02-25T09:23:48.353Z,19.75
2019-02-25T09:26:16.849Z,20.15
2019-02-25T09:28:45.349Z,18.55
2019-02-25T09:31:13.820Z,16.80
2019-02-25T09:33:42.352Z,17.73
2019-02-25T09:36:10.836Z,18.40
2019-02-25T09:38:39.338Z,18.77
2019-02-25T09:41:07.827Z,17.27
2019-02-25T09:43:36.312Z,15.88
2019-02-25T09:46:04.803Z,16.45
2019-02-25T09:48:33.300Z,15.60
2019-02-25T09:51:01.813Z,15.10
2019-02-25T09:53:30.302Z,14.98
2019-02-25T09:55:58.773Z,14.78
2019-02-25T09:58:27.281Z,16.40
2019-02-25T10:00:55.788Z,14.00
2019-02-25T10:03:24.311Z,14.35
2019-02-25T10:05:52.815Z,14.10
2019-02-25T10:08:21.291Z,15.10
2019-02-25T10:10:49.825Z,13.83
2019-02-25T10:13:18.301Z,14.15
2019-02-25T10:15:46.855Z,15.03
2019-02-25T10:18:15.349Z,13.95
2019-02-25T10:20:43.848Z,13.93
2019-02-25T10:23:12.360Z,14.00
2019-02-25T10:25:40.846Z,13.48
2019-02-25T10:28:09.376Z,13.90
2019-02-25T10:30:37.844Z,13.30
2019-02-25T10:33:06.340Z,13.60
2019-02-25T10:35:34.854Z,11.75
2019-02-25T10:38:03.345Z,13.50
2019-02-25T10:40:31.848Z,14.13
2019-02-25T10:43:00.343Z,14.65
2019-02-25T10:45:28.847Z,13.70
2019-02-25T10:47:58.767Z,14.10
2019-02-25T10:50:28.820Z,13.45
2019-02-25T10:53:03.503Z,14.58
2019-02-25T10:55:33.848Z,15.70
2019-02-25T10:58:03.796Z,15.08
2019-02-25T11:00:32.367Z,16.35
2019-02-25T11:03:00.849Z,16.67
2019-02-25T11:05:30.562Z,15.80
2019-02-25T11:08:00.033Z,14.78
2019-02-25T11:10:35.898Z,14.53
2019-02-25T11:13:04.513Z,16.12
2019-02-25T11:15:34.466Z,16.27
2019-02-25T11:18:02.941Z,15.08
2019-02-25T11:20:33.008Z,15.23
2019-02-25T11:23:02.247Z,15.50
2019-02-25T11:25:31.321Z,16.00
2019-02-25T11:28:04.395Z,16.70
2019-02-25T11:30:32.042Z,17.85
2019-02-25T11:33:00.591Z,16.17
2019-02-25T11:35:29.113Z,17.25
2019-02-25T11:37:59.644Z,17.05
2019-02-25T11:40:29.039Z,17.05
2019-02-25T11:42:58.138Z,18.92
2019-02-25T11:45:26.615Z,16.50
2019-02-25T11:47:55.126Z,16.97
2019-02-25T11:50:23.607Z,17.62
2019-02-25T11:52:52.095Z,16.02
2019-02-25T11:55:21.968Z,18.15
2019-02-25T11:57:50.570Z,17.20
2019-02-25T12:00:26.370Z,18.60
2019-02-25T12:02:54.848Z,18.42
2019-02-25T12:05:23.398Z,17.27
2019-02-25T12:07:51.901Z,17.37
2019-02-25T12:10:20.378Z,17.98
2019-02-25T12:12:48.883Z,19.48
2019-02-25T12:15:21.589Z,18.30
2019-02-25T12:17:52.892Z,19.42
2019-02-25T12:20:22.478Z,17.95
2019-02-25T12:22:51.167Z,17.48
2019-02-25T12:25:24.856Z,19.52
2019-02-25T12:27:53.356Z,18.32
2019-02-25T12:30:26.208Z,19.40
2019-02-25T12:32:54.693Z,19.90
2019-02-25T12:35:23.330Z,19.15
2019-02-25T12:37:51.805Z,20.25
2019-02-25T12:40:20.538Z,20.02
2019-02-25T12:42:49.059Z,19.62
2019-02-25T12:45:17.575Z,19.60
2019-02-25T12:47:46.143Z,18.32
2019-02-25T12:50:16.726Z,20.02
2019-02-25T12:52:45.196Z,17.42
2019-02-25T12:55:16.014Z,18.10
2019-02-25T12:57:44.490Z,19.00
2019-02-25T13:00:17.025Z,19.30
2019-02-25T13:02:45.492Z,17.35
2019-02-25T13:05:19.665Z,18.17
2019-02-25T13:07:48.175Z,17.48
2019-02-25T13:10:17.501Z,17.65
2019-02-25T13:12:46.119Z,17.12
2019-02-25T13:15:16.060Z,16.27
2019-02-25T13:17:44.630Z,18.35
2019-02-25T13:20:14.036Z,17.07
2019-02-25T13:22:42.622Z,17.87
2019-02-25T13:25:16.892Z,17.52
2019-02-25T13:27:45.550Z,15.88
2019-02-25T13:30:15.495Z,17.20
2019-02-25T13:32:45.013Z,16.10
2019-02-25T13:35:14.565Z,15.85
2019-02-25T13:37:43.122Z,18.12
2019-02-25T13:40:14.883Z,18.27
2019-02-25T13:42:43.365Z,18.15
2019-02-25T13:45:18.101Z,18.07
2019-02-25T13:47:46.694Z,16.87
2019-02-25T13:50:17.266Z,17.70
2019-02-25T13:52:48.642Z,17.37
2019-02-25T13:55:19.229Z,18.15
2019-02-25T13:57:49.568Z,17.57
2019-02-25T14:00:27.215Z,15.45
2019-02-25T14:02:55.811Z,16.45
2019-02-25T14:05:24.322Z,15.90
2019-02-25T14:07:54.425Z,15.48
2019-02-25T14:10:23.102Z,16.42
2019-02-25T14:12:51.584Z,17.17
2019-02-25T14:15:23.960Z,16.12
2019-02-25T14:17:52.433Z,16.10
2019-02-25T14:20:23.062Z,14.55
2019-02-25T14:22:51.572Z,15.03
2019-02-25T14:25:27.839Z,14.43
2019-02-25T14:27:56.697Z,14.18
2019-02-25T14:30:26.143Z,14.70
2019-02-25T14:32:57.127Z,14.00
2019-02-25T14:35:33.269Z,13.83
2019-02-25T14:38:15.250Z,14.60
2019-02-25T14:40:43.806Z,13.65
2019-02-25T14:43:15.100Z,14.07
2019-02-25T14:45:51.789Z,13.15
2019-02-25T14:48:36.660Z,14.85
2019-02-25T14:51:58.800Z,15.65
2019-02-25T14:54:38.191Z,15.18
2019-02-25T14:57:09.476Z,15.90
2019-02-25T14:59:38.227Z,17.60
2019-02-25T15:02:08.276Z,16.52
2019-02-25T15:04:39.555Z,16.93
2019-02-25T15:07:08.715Z,17.75
2019-02-25T15:09:41.362Z,17.73
2019-02-25T15:12:11.535Z,16.55
2019-02-25T15:15:04.752Z,17.62
2019-02-25T15:17:16.375Z,19.40
2019-02-25T15:19:52.122Z,20.10
2019-02-25T15:22:23.872Z,20.55
2019-02-25T15:25:13.712Z,19.62
2019-02-25T15:27:46.038Z,19.60
2019-02-25T15:30:25.082Z,21.75
2019-02-25T15:33:10.141Z,21.77
2019-02-25T15:35:39.382Z,19.82
2019-02-25T15:38:14.163Z,19.73
2019-02-25T15:40:43.451Z,21.95
2019-02-25T15:43:21.262Z,22.13
2019-02-25T15:45:51.198Z,20.77
2019-02-25T15:48:24.254Z,20.45
2019-02-25T15:51:01.452Z,20.65
2019-02-25T15:53:51.919Z,20.40
2019-02-25T15:56:52.798Z,21.82
2019-02-25T15:59:33.474Z,21.50
2019-02-25T16:02:14.198Z,22.02
2019-02-25T16:04:45.263Z,22.90
2019-02-25T16:07:16.878Z,23.60
2019-02-25T16:09:45.618Z,25.15
2019-02-25T16:12:17.358Z,28.10
2019-02-25T16:14:55.264Z,27.25
2019-02-25T16:17:27.605Z,26.65
2019-02-25T16:20:14.857Z,26.12
2019-02-25T16:22:43.846Z,26.37
2019-02-25T16:25:22.971Z,26.87
2019-02-25T16:27:59.355Z,28.87
2019-02-25T16:30:30.443Z,27.13
2019-02-25T16:33:02.104Z,27.20
2019-02-25T16:35:29.908Z,27.15
2019-02-25T16:38:00.340Z,29.50
2019-02-25T16:40:31.482Z,28.17
2019-02-25T16:43:02.180Z,30.65
2019-02-25T16:45:35.070Z,30.27
2019-02-25T16:48:02.472Z,29.77
2019-02-25T16:50:31.444Z,28.25
2019-02-25T16:53:03.608Z,30.72
2019-02-25T16:55:33.524Z,29.18
2019-02-25T16:58:06.062Z,32.98
2019-02-25T17:00:35.492Z,31.35
2019-02-25T17:03:06.530Z,30.30
2019-02-25T17:05:37.339Z,31.37
2019-02-25T17:08:08.011Z,31.65
2019-02-25T17:10:35.929Z,30.82
2019-02-25T17:13:05.926Z,32.75
2019-02-25T17:15:34.786Z,32.90
2019-02-25T17:18:04.422Z,33.33
2019-02-25T17:20:40.859Z,32.25
2019-02-25T17:23:16.836Z,33.13
2019-02-25T17:25:58.720Z,32.98
2019-02-25T17:28:29.168Z,32.65
2019-02-25T17:30:59.547Z,33.30
2019-02-25T17:33:32.553Z,33.90
2019-02-25T17:36:01.546Z,35.17
2019-02-25T17:38:30.745Z,37.63
2019-02-25T17:41:03.092Z,35.55
2019-02-25T17:43:34.756Z,35.40
2019-02-25T17:46:09.914Z,37.65
2019-02-25T17:48:39.757Z,38.15
2019-02-25T17:51:10.039Z,37.40
2019-02-25T17:53:45.990Z,37.90
2019-02-25T17:56:18.639Z,35.98
2019-02-25T17:58:48.492Z,36.48
2019-02-25T18:01:21.968Z,38.25
2019-02-25T18:03:50.623Z,36.73
2019-02-25T18:06:20.163Z,36.95
2019-02-25T18:08:51.012Z,38.90
2019-02-25T18:11:22.358Z,37.63
2019-02-25T18:13:51.323Z,36.45
2019-02-25T18:16:21.104Z,38.17
2019-02-25T18:18:51.989Z,35.95
2019-02-25T18:21:20.018Z,37.75
2019-02-25T18:23:49.434Z,35.80
2019-02-25T18:26:21.443Z,35.92
2019-02-25T18:28:50.709Z,35.33
2019-02-25T18:31:23.363Z,35.20
2019-02-25T18:33:59.627Z,34.15
2019-02-25T18:36:34.401Z,36.42
2019-02-25T18:39:03.350Z,36.20
2019-02-25T18:41:34.228Z,39.48
2019-02-25T18:44:04.484Z,39.10
2019-02-25T18:46:33.037Z,38.53
2019-02-25T18:49:03.023Z,36.80
2019-02-25T18:51:32.864Z,37.80
2019-02-25T18:54:03.708Z,39.35
2019-02-25T18:56:33.664Z,38.50
2019-02-25T18:59:08.257Z,39.38
2019-02-25T19:01:33.215Z,40.40
2019-02-25T19:04:02.634Z,40.73
2019-02-25T19:06:31.288Z,39.95
2019-02-25T19:08:59.917Z,37.90
2019-02-25T19:11:28.661Z,39.65
2019-02-25T19:14:01.251Z,43.00
2019-02-25T19:16:27.799Z,41.90
2019-02-25T19:18:56.349Z,42.15
2019-02-25T19:21:27.181Z,46.68
2019-02-25T19:23:55.537Z,45.00
2019-02-25T19:26:24.207Z,45.00
2019-02-25T19:28:54.594Z,43.17
2019-02-25T19:31:30.287Z,40.85
2019-02-25T19:34:02.170Z,42.83
2019-02-25T19:36:34.396Z,40.67
2019-02-25T19:39:07.735Z,40.20
2019-02-25T19:41:40.187Z,40.73
2019-02-25T19:44:10.445Z,36.08
2019-02-25T19:46:39.369Z,38.15
2019-02-25T19:49:09.260Z,37.23
2019-02-25T19:51:38.278Z,35.33
2019-02-25T19:54:11.492Z,36.88
2019-02-25T19:56:39.692Z,38.90
2019-02-25T19:59:09.626Z,40.60
2019-02-25T20:01:39.351Z,36.30
2019-02-25T20:04:12.181Z,36.68
2019-02-25T20:06:44.655Z,36.38
2019-02-25T20:09:15.677Z,38.92
2019-02-25T20:11:45.184Z,33.58
2019-02-25T20:14:16.727Z,35.65
2019-02-25T20:16:46.566Z,35.43
2019-02-25T20:19:16.665Z,35.15
2019-02-25T20:21:48.250Z,35.65
2019-02-25T20:24:16.915Z,33.58
2019-02-25T20:26:48.647Z,38.58
2019-02-25T20:29:19.823Z,41.28
2019-02-25T20:31:50.123Z,39.18
2019-02-25T20:34:20.525Z,41.13
2019-02-25T20:36:50.475Z,44.48
2019-02-25T20:39:18.925Z,46.60
2019-02-25T20:41:48.338Z,45.63
2019-02-25T20:44:18.560Z,45.15
2019-02-25T20:46:50.638Z,43.02
2019-02-25T20:49:18.779Z,43.98
2019-02-25T20:51:50.086Z,43.90
2019-02-25T20:54:23.086Z,43.58
2019-02-25T20:56:53.215Z,46.18
2019-02-25T20:59:23.453Z,45.85
2019-02-25T21:01:54.494Z,48.25
2019-02-25T21:04:23.203Z,46.02
2019-02-25T21:06:51.840Z,47.78
2019-02-25T21:09:22.137Z,47.95
2019-02-25T21:11:53.893Z,45.98
2019-02-25T21:14:22.373Z,49.20
2019-02-25T21:16:52.127Z,45.85
2019-02-25T21:19:21.038Z,50.58
2019-02-25T21:21:52.961Z,50.28
2019-02-25T21:24:31.154Z,51.05
2019-02-25T21:27:01.496Z,49.10
2019-02-25T21:29:34.825Z,49.23
2019-02-25T21:32:03.045Z,48.60
2019-02-25T21:34:32.951Z,48.55
2019-02-25T21:37:03.018Z,49.70
2019-02-25T21:39:32.633Z,46.05
2019-02-25T21:42:02.092Z,49.18
2019-02-25T21:44:31.598Z,51.95
2019-02-25T21:47:01.117Z,51.73
2019-02-25T21:49:33.778Z,52.60
2019-02-25T21:52:02.434Z,49.23
2019-02-25T21:54:37.451Z,49.00
2019-02-25T21:57:03.290Z,48.15
2019-02-25T21:59:34.378Z,44.35
2019-02-25T22:02:08.376Z,42.55
2019-02-25T22:07:33.153Z,42.13
2019-02-25T22:10:14.373Z,40.95
2019-02-25T22:12:44.338Z,39.48
2019-02-25T22:15:20.361Z,40.80
2019-02-25T22:17:52.340Z,40.98
2019-02-25T22:20:22.461Z,38.95
2019-02-25T22:23:03.646Z,41.13
2019-02-25T22:25:38.840Z,41.40
2019-02-25T22:28:12.428Z,43.87
2019-02-25T22:30:49.765Z,42.93
2019-02-25T22:33:27.737Z,40.52
2019-02-25T22:38:24.994Z,41.68
2019-02-25T22:44:24.752Z,40.17
2019-02-25T22:46:58.128Z,41.13
2019-02-25T22:49:28.883Z,38.90
2019-02-25T22:51:58.193Z,39.50
2019-02-25T22:54:30.407Z,39.80
2019-02-25T22:57:01.725Z,38.00
2019-02-25T23:00:19.796Z,37.40
2019-02-25T23:02:43.460Z,38.35
2019-02-25T23:05:23.744Z,36.68
2019-02-25T23:07:54.708Z,37.00
2019-02-25T23:10:25.305Z,37.50
2019-02-25T23:12:53.792Z,37.50
2019-02-25T23:15:23.304Z,38.63
2019-02-25T23:18:04.416Z,38.13
2019-02-25T23:30:18.790Z,38.98
2019-02-25T23:33:04.595Z,36.70
2019-02-25T23:35:33.289Z,39.03
2019-02-25T23:38:02.071Z,39.80
2019-02-25T23:40:33.299Z,39.92
2019-02-25T23:43:03.008Z,40.10
2019-02-25T23:45:31.189Z,38.02
2019-02-25T23:48:01.473Z,38.92
2019-02-25T23:50:31.737Z,38.30
2019-02-25T23:53:00.486Z,40.25
2019-02-25T23:55:29.707Z,40.75
2019-02-25T23:57:58.400Z,40.50
